sensor_id;sensor_type;location;lat;lon;timestamp;pressure;altitude;pressure_sealevel;temperature;humidity
54455;BME280;40364;52.270;10.546;2023-01-26T00:02:09;101456.72;;;7.72;52.79
54455;BME280;40364;52.270;10.546;2023-01-26T00:04:35;101448.88;;;8.67;52.12
54455;BME280;40364;52.270;10.546;2023-01-26T00:07:02;101442.59;;;9.25;49.70
54455;BME280;40364;52.270;10.546;2023-01-26T00:09:29;101439.19;;;9.28;49.95
54455;BME280;40364;52.270;10.546;2023-01-26T00:11:56;101433.41;;;8.06;51.82
54455;BME280;40364;52.270;10.546;2023-01-26T00:14:24;101437.59;;;8.50;52.01
54455;BME280;40364;52.270;10.546;2023-01-26T00:16:51;101442.00;;;9.72;47.96
54455;BME280;40364;52.270;10.546;2023-01-26T00:19:19;101431.69;;;9.73;46.68
54455;BME280;40364;52.270;10.546;2023-01-26T00:21:45;101435.97;;;9.79;47.75
54455;BME280;40364;52.270;10.546;2023-01-26T00:24:12;101426.69;;;11.20;45.02
54455;BME280;40364;52.270;10.546;2023-01-26T00:26:39;101418.66;;;10.13;47.34
54455;BME280;40364;52.270;10.546;2023-01-26T00:29:05;101397.88;;;9.35;48.25
54455;BME280;40364;52.270;10.546;2023-01-26T00:31:33;101416.31;;;11.03;45.67
54455;BME280;40364;52.270;10.546;2023-01-26T00:34:00;101395.19;;;11.19;44.37
54455;BME280;40364;52.270;10.546;2023-01-26T00:36:27;101410.59;;;10.42;45.47
54455;BME280;40364;52.270;10.546;2023-01-26T00:38:53;101419.94;;;11.12;44.74
54455;BME280;40364;52.270;10.546;2023-01-26T00:41:20;101409.88;;;10.76;45.06
54455;BME280;40364;52.270;10.546;2023-01-26T00:44:05;101411.75;;;11.50;43.94
54455;BME280;40364;52.270;10.546;2023-01-26T00:46:31;101420.66;;;10.52;45.20
54455;BME280;40364;52.270;10.546;2023-01-26T00:48:59;101414.66;;;8.94;49.55
54455;BME280;40364;52.270;10.546;2023-01-26T00:51:26;101406.91;;;8.82;49.77
54455;BME280;40364;52.270;10.546;2023-01-26T00:53:53;101409.63;;;9.76;47.61
54455;BME280;40364;52.270;10.546;2023-01-26T00:56:20;101407.66;;;9.77;47.00
54455;BME280;40364;52.270;10.546;2023-01-26T00:58:46;101405.22;;;9.84;45.96
54455;BME280;40364;52.270;10.546;2023-01-26T01:01:13;101406.41;;;10.54;45.00
54455;BME280;40364;52.270;10.546;2023-01-26T01:03:40;101408.59;;;10.83;44.63
54455;BME280;40364;52.270;10.546;2023-01-26T01:06:08;101411.31;;;10.57;44.42
54455;BME280;40364;52.270;10.546;2023-01-26T01:08:34;101401.09;;;10.35;45.40
54455;BME280;40364;52.270;10.546;2023-01-26T01:11:03;101403.28;;;8.82;49.38
54455;BME280;40364;52.270;10.546;2023-01-26T01:13:30;101406.78;;;9.99;46.99
54455;BME280;40364;52.270;10.546;2023-01-26T01:15:56;101394.19;;;10.89;44.83
54455;BME280;40364;52.270;10.546;2023-01-26T01:18:23;101399.97;;;10.44;44.86
54455;BME280;40364;52.270;10.546;2023-01-26T01:20:50;101404.47;;;10.71;45.50
54455;BME280;40364;52.270;10.546;2023-01-26T01:23:18;101404.09;;;10.56;45.42
54455;BME280;40364;52.270;10.546;2023-01-26T01:25:45;101396.53;;;8.60;48.51
54455;BME280;40364;52.270;10.546;2023-01-26T01:28:11;101394.28;;;8.49;49.68
54455;BME280;40364;52.270;10.546;2023-01-26T01:30:38;101396.00;;;8.31;50.04
54455;BME280;40364;52.270;10.546;2023-01-26T01:33:05;101390.03;;;9.15;48.83
54455;BME280;40364;52.270;10.546;2023-01-26T01:35:32;101392.78;;;7.83;50.78
54455;BME280;40364;52.270;10.546;2023-01-26T01:38:00;101389.59;;;9.97;47.13
54455;BME280;40364;52.270;10.546;2023-01-26T01:40:28;101389.88;;;8.48;48.85
54455;BME280;40364;52.270;10.546;2023-01-26T01:42:56;101374.72;;;9.48;47.69
54455;BME280;40364;52.270;10.546;2023-01-26T01:45:41;101378.72;;;9.87;46.83
54455;BME280;40364;52.270;10.546;2023-01-26T01:48:15;101380.94;;;9.45;47.58
54455;BME280;40364;52.270;10.546;2023-01-26T01:50:43;101384.88;;;9.44;46.49
54455;BME280;40364;52.270;10.546;2023-01-26T01:53:15;101380.47;;;10.44;45.22
54455;BME280;40364;52.270;10.546;2023-01-26T01:55:45;101383.53;;;11.43;43.29
54455;BME280;40364;52.270;10.546;2023-01-26T01:58:13;101373.59;;;9.27;45.40
54455;BME280;40364;52.270;10.546;2023-01-26T02:00:40;101362.34;;;9.32;45.88
54455;BME280;40364;52.270;10.546;2023-01-26T02:03:08;101367.66;;;9.95;45.54
54455;BME280;40364;52.270;10.546;2023-01-26T02:05:46;101364.66;;;8.94;48.12
54455;BME280;40364;52.270;10.546;2023-01-26T02:08:15;101356.28;;;9.07;47.76
54455;BME280;40364;52.270;10.546;2023-01-26T02:10:46;101359.19;;;8.66;48.59
54455;BME280;40364;52.270;10.546;2023-01-26T02:13:15;101347.06;;;9.21;47.73
54455;BME280;40364;52.270;10.546;2023-01-26T02:15:43;101349.97;;;9.16;47.53
54455;BME280;40364;52.270;10.546;2023-01-26T02:18:10;101348.84;;;9.39;46.60
54455;BME280;40364;52.270;10.546;2023-01-26T02:20:42;101346.13;;;10.75;44.40
54455;BME280;40364;52.270;10.546;2023-01-26T02:23:24;101338.91;;;10.17;44.60
54455;BME280;40364;52.270;10.546;2023-01-26T02:26:06;101340.28;;;8.00;49.83
54455;BME280;40364;52.270;10.546;2023-01-26T02:28:33;101331.41;;;8.66;47.48
54455;BME280;40364;52.270;10.546;2023-01-26T02:31:00;101340.34;;;9.22;47.14
54455;BME280;40364;52.270;10.546;2023-01-26T02:33:29;101335.19;;;9.06;47.63
54455;BME280;40364;52.270;10.546;2023-01-26T02:35:57;101344.91;;;7.31;50.86
54455;BME280;40364;52.270;10.546;2023-01-26T02:38:28;101339.94;;;9.06;47.69
54455;BME280;40364;52.270;10.546;2023-01-26T02:40:58;101351.81;;;10.13;45.05
54455;BME280;40364;52.270;10.546;2023-01-26T02:43:29;101350.56;;;10.85;44.08
54455;BME280;40364;52.270;10.546;2023-01-26T02:45:56;101339.59;;;11.14;43.31
54455;BME280;40364;52.270;10.546;2023-01-26T02:48:23;101342.03;;;8.23;47.93
54455;BME280;40364;52.270;10.546;2023-01-26T02:51:08;101341.88;;;9.05;47.28
54455;BME280;40364;52.270;10.546;2023-01-26T02:53:34;101341.59;;;8.57;47.54
54455;BME280;40364;52.270;10.546;2023-01-26T02:56:01;101336.47;;;8.87;46.74
54455;BME280;40364;52.270;10.546;2023-01-26T02:58:28;101333.50;;;8.33;47.47
54455;BME280;40364;52.270;10.546;2023-01-26T03:00:55;101330.41;;;9.83;45.41
54455;BME280;40364;52.270;10.546;2023-01-26T03:03:23;101317.94;;;9.71;45.77
54455;BME280;40364;52.270;10.546;2023-01-26T03:05:51;101314.78;;;9.64;46.14
54455;BME280;40364;52.270;10.546;2023-01-26T03:08:18;101319.47;;;9.86;45.30
54455;BME280;40364;52.270;10.546;2023-01-26T03:10:44;101321.22;;;9.73;45.78
54455;BME280;40364;52.270;10.546;2023-01-26T03:13:12;101309.97;;;8.81;46.99
54455;BME280;40364;52.270;10.546;2023-01-26T03:15:41;101313.66;;;9.65;46.07
54455;BME280;40364;52.270;10.546;2023-01-26T03:18:10;101310.50;;;9.05;46.44
54455;BME280;40364;52.270;10.546;2023-01-26T03:20:53;101310.28;;;9.01;46.15
54455;BME280;40364;52.270;10.546;2023-01-26T03:23:38;101311.56;;;9.40;46.21
54455;BME280;40364;52.270;10.546;2023-01-26T03:26:22;101306.94;;;8.91;46.79
54455;BME280;40364;52.270;10.546;2023-01-26T03:29:06;101310.69;;;10.50;44.00
54455;BME280;40364;52.270;10.546;2023-01-26T03:31:34;101303.78;;;11.42;42.44
54455;BME280;40364;52.270;10.546;2023-01-26T03:34:01;101300.19;;;10.46;43.77
54455;BME280;40364;52.270;10.546;2023-01-26T03:36:28;101305.66;;;10.86;41.96
54455;BME280;40364;52.270;10.546;2023-01-26T03:38:54;101317.09;;;9.18;45.22
54455;BME280;40364;52.270;10.546;2023-01-26T03:41:21;101313.69;;;7.39;49.75
54455;BME280;40364;52.270;10.546;2023-01-26T03:44:06;101314.78;;;7.70;48.76
54455;BME280;40364;52.270;10.546;2023-01-26T03:46:51;101315.88;;;8.65;47.95
54455;BME280;40364;52.270;10.546;2023-01-26T03:49:35;101306.56;;;8.48;48.04
54455;BME280;40364;52.270;10.546;2023-01-26T03:52:19;101310.34;;;10.42;44.00
54455;BME280;40364;52.270;10.546;2023-01-26T03:55:04;101309.03;;;11.43;41.51
54455;BME280;40364;52.270;10.546;2023-01-26T03:57:49;101307.09;;;10.75;42.48
54455;BME280;40364;52.270;10.546;2023-01-26T04:00:16;101319.06;;;11.27;41.30
54455;BME280;40364;52.270;10.546;2023-01-26T04:02:44;101315.97;;;10.86;42.17
54455;BME280;40364;52.270;10.546;2023-01-26T04:05:28;101308.47;;;9.50;43.85
54455;BME280;40364;52.270;10.546;2023-01-26T04:08:12;101310.28;;;8.79;45.99
54455;BME280;40364;52.270;10.546;2023-01-26T04:10:52;101297.22;;;8.43;47.09
54455;BME280;40364;52.270;10.546;2023-01-26T04:13:21;101303.59;;;9.25;45.37
54455;BME280;40364;52.270;10.546;2023-01-26T04:16:07;101304.41;;;8.44;47.65
54455;BME280;40364;52.270;10.546;2023-01-26T04:18:52;101297.34;;;9.19;46.42
54455;BME280;40364;52.270;10.546;2023-01-26T04:21:36;101290.75;;;8.21;47.54
54455;BME280;40364;52.270;10.546;2023-01-26T04:24:05;101279.34;;;8.22;48.45
54455;BME280;40364;52.270;10.546;2023-01-26T04:26:35;101289.31;;;9.40;46.16
54455;BME280;40364;52.270;10.546;2023-01-26T04:29:04;101297.44;;;10.64;43.97
54455;BME280;40364;52.270;10.546;2023-01-26T04:31:31;101285.66;;;10.67;43.17
54455;BME280;40364;52.270;10.546;2023-01-26T04:34:01;101293.84;;;10.98;43.01
54455;BME280;40364;52.270;10.546;2023-01-26T04:36:28;101288.19;;;10.20;43.49
54455;BME280;40364;52.270;10.546;2023-01-26T04:38:55;101291.69;;;11.03;42.07
54455;BME280;40364;52.270;10.546;2023-01-26T04:41:22;101291.03;;;11.06;42.06
54455;BME280;40364;52.270;10.546;2023-01-26T04:43:49;101284.78;;;11.27;41.88
54455;BME280;40364;52.270;10.546;2023-01-26T04:46:16;101279.56;;;10.48;42.68
54455;BME280;40364;52.270;10.546;2023-01-26T04:48:42;101270.75;;;9.58;45.00
54455;BME280;40364;52.270;10.546;2023-01-26T04:51:12;101263.19;;;10.55;43.50
54455;BME280;40364;52.270;10.546;2023-01-26T04:53:39;101266.78;;;10.98;42.53
54455;BME280;40364;52.270;10.546;2023-01-26T04:56:07;101272.16;;;11.03;42.11
54455;BME280;40364;52.270;10.546;2023-01-26T04:58:34;101265.91;;;9.72;44.08
54455;BME280;40364;52.270;10.546;2023-01-26T05:01:01;101259.94;;;9.96;44.28
54455;BME280;40364;52.270;10.546;2023-01-26T05:03:27;101254.63;;;10.42;43.43
54455;BME280;40364;52.270;10.546;2023-01-26T05:05:54;101255.88;;;9.62;45.38
54455;BME280;40364;52.270;10.546;2023-01-26T05:08:22;101264.16;;;10.59;43.60
54455;BME280;40364;52.270;10.546;2023-01-26T05:10:49;101266.78;;;10.64;43.38
54455;BME280;40364;52.270;10.546;2023-01-26T05:13:17;101258.25;;;9.86;44.68
54455;BME280;40364;52.270;10.546;2023-01-26T05:15:43;101265.78;;;10.51;43.66
54455;BME280;40364;52.270;10.546;2023-01-26T05:18:10;101257.66;;;9.98;44.36
54455;BME280;40364;52.270;10.546;2023-01-26T05:20:37;101259.69;;;10.23;44.54
54455;BME280;40364;52.270;10.546;2023-01-26T05:23:04;101258.09;;;11.00;42.86
54455;BME280;40364;52.270;10.546;2023-01-26T05:25:32;101257.25;;;9.73;45.21
54455;BME280;40364;52.270;10.546;2023-01-26T05:27:58;101268.63;;;10.03;45.13
54455;BME280;40364;52.270;10.546;2023-01-26T05:30:25;101265.47;;;9.87;45.69
54455;BME280;40364;52.270;10.546;2023-01-26T05:32:52;101273.66;;;10.58;44.32
54455;BME280;40364;52.270;10.546;2023-01-26T05:35:18;101267.28;;;10.74;43.85
54455;BME280;40364;52.270;10.546;2023-01-26T05:37:45;101273.34;;;10.51;44.54
54455;BME280;40364;52.270;10.546;2023-01-26T05:40:12;101271.38;;;10.60;44.82
54455;BME280;40364;52.270;10.546;2023-01-26T05:42:41;101280.06;;;10.67;44.59
54455;BME280;40364;52.270;10.546;2023-01-26T05:45:08;101280.38;;;10.74;44.59
54455;BME280;40364;52.270;10.546;2023-01-26T05:47:35;101285.16;;;10.82;44.51
54455;BME280;40364;52.270;10.546;2023-01-26T05:50:02;101280.44;;;11.55;43.25
54455;BME280;40364;52.270;10.546;2023-01-26T05:52:29;101279.72;;;11.67;42.64
54455;BME280;40364;52.270;10.546;2023-01-26T05:54:56;101274.63;;;10.44;45.17
54455;BME280;40364;52.270;10.546;2023-01-26T05:57:23;101274.63;;;9.88;46.53
54455;BME280;40364;52.270;10.546;2023-01-26T05:59:51;101278.81;;;10.16;45.61
54455;BME280;40364;52.270;10.546;2023-01-26T06:02:18;101282.66;;;10.46;45.52
54455;BME280;40364;52.270;10.546;2023-01-26T06:04:45;101289.38;;;10.36;45.52
54455;BME280;40364;52.270;10.546;2023-01-26T06:07:11;101290.22;;;11.06;44.26
54455;BME280;40364;52.270;10.546;2023-01-26T06:09:38;101292.63;;;11.33;43.76
54455;BME280;40364;52.270;10.546;2023-01-26T06:12:05;101287.72;;;9.87;45.91
54455;BME280;40364;52.270;10.546;2023-01-26T06:14:32;101287.44;;;10.63;45.22
54455;BME280;40364;52.270;10.546;2023-01-26T06:17:00;101283.56;;;10.07;46.95
54455;BME280;40364;52.270;10.546;2023-01-26T06:19:26;101288.22;;;10.46;45.96
54455;BME280;40364;52.270;10.546;2023-01-26T06:21:53;101287.78;;;10.70;45.37
54455;BME280;40364;52.270;10.546;2023-01-26T06:24:20;101291.84;;;11.16;44.86
54455;BME280;40364;52.270;10.546;2023-01-26T06:26:48;101286.69;;;11.52;43.54
54455;BME280;40364;52.270;10.546;2023-01-26T06:29:15;101294.34;;;11.64;43.71
54455;BME280;40364;52.270;10.546;2023-01-26T06:31:41;101292.91;;;11.58;43.91
54455;BME280;40364;52.270;10.546;2023-01-26T06:34:09;101297.59;;;10.76;46.15
54455;BME280;40364;52.270;10.546;2023-01-26T06:36:36;101294.94;;;10.36;46.51
54455;BME280;40364;52.270;10.546;2023-01-26T06:39:03;101299.72;;;11.05;45.19
54455;BME280;40364;52.270;10.546;2023-01-26T06:41:29;101304.00;;;10.76;46.04
54455;BME280;40364;52.270;10.546;2023-01-26T06:43:57;101300.88;;;11.30;44.71
54455;BME280;40364;52.270;10.546;2023-01-26T06:46:23;101300.06;;;11.12;45.24
54455;BME280;40364;52.270;10.546;2023-01-26T06:48:50;101302.44;;;11.48;45.27
54455;BME280;40364;52.270;10.546;2023-01-26T06:51:43;101302.59;;;12.07;44.63
54455;BME280;40364;52.270;10.546;2023-01-26T06:54:12;101297.88;;;10.40;46.74
54455;BME280;40364;52.270;10.546;2023-01-26T06:56:39;101304.34;;;9.70;48.95
54455;BME280;40364;52.270;10.546;2023-01-26T06:59:06;101290.31;;;9.44;48.61
54455;BME280;40364;52.270;10.546;2023-01-26T07:01:37;101292.97;;;9.27;50.24
54455;BME280;40364;52.270;10.546;2023-01-26T07:04:04;101286.66;;;9.66;48.90
54455;BME280;40364;52.270;10.546;2023-01-26T07:06:31;101296.75;;;10.41;47.69
54455;BME280;40364;52.270;10.546;2023-01-26T07:08:59;101298.78;;;10.18;48.32
54455;BME280;40364;52.270;10.546;2023-01-26T07:11:26;101291.72;;;10.69;47.27
54455;BME280;40364;52.270;10.546;2023-01-26T07:13:55;101299.59;;;10.67;47.42
54455;BME280;40364;52.270;10.546;2023-01-26T07:16:21;101297.56;;;10.41;47.44
54455;BME280;40364;52.270;10.546;2023-01-26T07:18:48;101299.22;;;11.03;46.08
54455;BME280;40364;52.270;10.546;2023-01-26T07:21:16;101305.72;;;11.50;46.28
54455;BME280;40364;52.270;10.546;2023-01-26T07:23:43;101303.16;;;11.19;46.73
54455;BME280;40364;52.270;10.546;2023-01-26T07:26:12;101305.47;;;11.26;46.31
54455;BME280;40364;52.270;10.546;2023-01-26T07:28:39;101302.25;;;9.75;49.37
54455;BME280;40364;52.270;10.546;2023-01-26T07:31:06;101305.81;;;9.36;49.53
54455;BME280;40364;52.270;10.546;2023-01-26T07:33:34;101301.13;;;10.25;47.75
54455;BME280;40364;52.270;10.546;2023-01-26T07:36:01;101310.94;;;9.83;49.43
54455;BME280;40364;52.270;10.546;2023-01-26T07:38:28;101311.81;;;9.92;49.86
54455;BME280;40364;52.270;10.546;2023-01-26T07:40:56;101303.75;;;10.21;49.04
54455;BME280;40364;52.270;10.546;2023-01-26T07:43:24;101316.97;;;10.98;47.90
54455;BME280;40364;52.270;10.546;2023-01-26T07:45:52;101312.34;;;11.02;47.40
54455;BME280;40364;52.270;10.546;2023-01-26T07:48:20;101318.28;;;10.18;48.90
54455;BME280;40364;52.270;10.546;2023-01-26T07:50:47;101326.38;;;9.58;50.54
54455;BME280;40364;52.270;10.546;2023-01-26T07:53:15;101319.72;;;9.36;50.40
54455;BME280;40364;52.270;10.546;2023-01-26T07:55:44;101326.91;;;9.99;49.23
54455;BME280;40364;52.270;10.546;2023-01-26T07:58:11;101317.28;;;10.62;48.42
54455;BME280;40364;52.270;10.546;2023-01-26T08:00:39;101317.25;;;10.71;47.70
54455;BME280;40364;52.270;10.546;2023-01-26T08:03:06;101321.03;;;10.75;47.25
54455;BME280;40364;52.270;10.546;2023-01-26T08:05:33;101325.97;;;11.94;45.46
54455;BME280;40364;52.270;10.546;2023-01-26T08:08:01;101307.06;;;11.99;45.34
54455;BME280;40364;52.270;10.546;2023-01-26T08:10:28;101308.41;;;12.52;44.18
54455;BME280;40364;52.270;10.546;2023-01-26T08:12:56;101311.22;;;12.94;43.41
54455;BME280;40364;52.270;10.546;2023-01-26T08:15:23;101304.59;;;12.98;43.00
54455;BME280;40364;52.270;10.546;2023-01-26T08:17:52;101302.09;;;12.34;43.54
54455;BME280;40364;52.270;10.546;2023-01-26T08:20:26;101291.94;;;12.00;44.40
54455;BME280;40364;52.270;10.546;2023-01-26T08:22:53;101316.53;;;10.22;46.85
54455;BME280;40364;52.270;10.546;2023-01-26T08:25:20;101318.44;;;9.42;49.21
54455;BME280;40364;52.270;10.546;2023-01-26T08:27:46;101319.16;;;10.27;48.39
54455;BME280;40364;52.270;10.546;2023-01-26T08:30:13;101323.84;;;11.27;47.01
54455;BME280;40364;52.270;10.546;2023-01-26T08:32:40;101317.13;;;10.67;47.78
54455;BME280;40364;52.270;10.546;2023-01-26T08:35:07;101313.38;;;11.88;45.69
54455;BME280;40364;52.270;10.546;2023-01-26T08:37:36;101310.66;;;11.36;46.10
54455;BME280;40364;52.270;10.546;2023-01-26T08:40:03;101317.81;;;11.71;45.74
54455;BME280;40364;52.270;10.546;2023-01-26T08:42:31;101310.41;;;11.75;46.38
54455;BME280;40364;52.270;10.546;2023-01-26T08:44:58;101308.63;;;12.18;45.61
54455;BME280;40364;52.270;10.546;2023-01-26T08:47:24;101298.75;;;12.20;45.02
54455;BME280;40364;52.270;10.546;2023-01-26T08:49:51;101295.97;;;10.92;46.90
54455;BME280;40364;52.270;10.546;2023-01-26T08:52:18;101309.84;;;11.35;46.85
54455;BME280;40364;52.270;10.546;2023-01-26T08:54:47;101318.59;;;11.25;46.97
54455;BME280;40364;52.270;10.546;2023-01-26T08:57:13;101312.50;;;10.71;47.73
54455;BME280;40364;52.270;10.546;2023-01-26T08:59:40;101312.19;;;10.82;47.72
54455;BME280;40364;52.270;10.546;2023-01-26T09:02:07;101307.38;;;11.42;47.05
54455;BME280;40364;52.270;10.546;2023-01-26T09:04:34;101310.28;;;11.63;46.24
54455;BME280;40364;52.270;10.546;2023-01-26T09:07:01;101313.81;;;11.17;47.26
54455;BME280;40364;52.270;10.546;2023-01-26T09:09:28;101304.78;;;9.94;49.23
54455;BME280;40364;52.270;10.546;2023-01-26T09:11:56;101296.59;;;11.15;46.90
54455;BME280;40364;52.270;10.546;2023-01-26T09:14:23;101305.75;;;10.46;48.82
54455;BME280;40364;52.270;10.546;2023-01-26T09:16:49;101305.13;;;11.01;46.68
54455;BME280;40364;52.270;10.546;2023-01-26T09:19:16;101307.75;;;12.76;44.39
54455;BME280;40364;52.270;10.546;2023-01-26T09:21:43;101297.94;;;11.00;46.07
54455;BME280;40364;52.270;10.546;2023-01-26T09:24:09;101302.66;;;10.39;48.00
54455;BME280;40364;52.270;10.546;2023-01-26T09:26:36;101311.81;;;10.31;47.96
54455;BME280;40364;52.270;10.546;2023-01-26T09:29:04;101300.31;;;11.54;46.31
54455;BME280;40364;52.270;10.546;2023-01-26T09:31:31;101307.31;;;11.68;45.78
54455;BME280;40364;52.270;10.546;2023-01-26T09:33:58;101308.13;;;11.86;44.66
54455;BME280;40364;52.270;10.546;2023-01-26T09:36:25;101308.19;;;12.57;43.19
54455;BME280;40364;52.270;10.546;2023-01-26T09:38:52;101321.28;;;11.77;44.02
54455;BME280;40364;52.270;10.546;2023-01-26T09:41:32;101313.88;;;13.32;42.74
54455;BME280;40364;52.270;10.546;2023-01-26T09:44:08;101312.59;;;12.37;43.67
54455;BME280;40364;52.270;10.546;2023-01-26T09:46:45;101307.59;;;12.93;43.00
54455;BME280;40364;52.270;10.546;2023-01-26T09:49:20;101309.22;;;11.12;45.45
54455;BME280;40364;52.270;10.546;2023-01-26T09:51:52;101300.00;;;12.31;44.02
54455;BME280;40364;52.270;10.546;2023-01-26T09:54:25;101308.91;;;12.25;44.15
54455;BME280;40364;52.270;10.546;2023-01-26T09:56:55;101312.50;;;12.25;43.83
54455;BME280;40364;52.270;10.546;2023-01-26T09:59:29;101317.00;;;12.68;42.91
54455;BME280;40364;52.270;10.546;2023-01-26T10:02:02;101305.13;;;11.91;44.50
54455;BME280;40364;52.270;10.546;2023-01-26T10:04:32;101304.41;;;12.32;43.89
54455;BME280;40364;52.270;10.546;2023-01-26T10:07:03;101309.50;;;13.01;43.17
54455;BME280;40364;52.270;10.546;2023-01-26T10:09:34;101317.34;;;11.78;44.93
54455;BME280;40364;52.270;10.546;2023-01-26T10:12:06;101307.69;;;11.58;45.39
54455;BME280;40364;52.270;10.546;2023-01-26T10:14:36;101299.66;;;12.54;44.26
54455;BME280;40364;52.270;10.546;2023-01-26T10:17:13;101306.41;;;11.38;45.34
54455;BME280;40364;52.270;10.546;2023-01-26T10:19:43;101299.66;;;11.57;45.90
54455;BME280;40364;52.270;10.546;2023-01-26T10:22:14;101306.88;;;11.58;45.55
54455;BME280;40364;52.270;10.546;2023-01-26T10:24:43;101306.66;;;12.18;44.61
54455;BME280;40364;52.270;10.546;2023-01-26T10:27:12;101294.09;;;12.95;42.99
54455;BME280;40364;52.270;10.546;2023-01-26T10:29:41;101282.63;;;12.88;42.85
54455;BME280;40364;52.270;10.546;2023-01-26T10:32:12;101279.38;;;12.44;43.78
54455;BME280;40364;52.270;10.546;2023-01-26T10:34:40;101286.75;;;12.70;43.71
54455;BME280;40364;52.270;10.546;2023-01-26T10:37:18;101285.81;;;13.40;42.18
54455;BME280;40364;52.270;10.546;2023-01-26T10:39:56;101285.59;;;13.58;41.98
54455;BME280;40364;52.270;10.546;2023-01-26T10:42:26;101282.22;;;13.19;42.82
54455;BME280;40364;52.270;10.546;2023-01-26T10:44:55;101279.25;;;11.65;45.75
54455;BME280;40364;52.270;10.546;2023-01-26T10:47:23;101275.53;;;11.43;45.86
54455;BME280;40364;52.270;10.546;2023-01-26T10:49:50;101276.91;;;12.22;44.35
54455;BME280;40364;52.270;10.546;2023-01-26T10:52:18;101270.91;;;13.15;43.27
54455;BME280;40364;52.270;10.546;2023-01-26T10:54:47;101256.34;;;12.68;43.77
54455;BME280;40364;52.270;10.546;2023-01-26T10:57:21;101249.03;;;12.76;43.67
54455;BME280;40364;52.270;10.546;2023-01-26T10:59:52;101242.31;;;11.68;46.01
54455;BME280;40364;52.270;10.546;2023-01-26T11:02:24;101248.44;;;11.53;47.27
54455;BME280;40364;52.270;10.546;2023-01-26T11:07:27;101250.88;;;10.90;48.31
54455;BME280;40364;52.270;10.546;2023-01-26T11:09:54;101245.59;;;11.14;48.12
54455;BME280;40364;52.270;10.546;2023-01-26T11:12:24;101242.47;;;12.30;46.08
54455;BME280;40364;52.270;10.546;2023-01-26T11:15:01;101236.34;;;11.87;47.03
54455;BME280;40364;52.270;10.546;2023-01-26T11:17:35;101235.81;;;11.46;48.34
54455;BME280;40364;52.270;10.546;2023-01-26T11:20:27;101230.28;;;11.38;48.93
54455;BME280;40364;52.270;10.546;2023-01-26T11:23:03;101229.50;;;11.20;49.04
54455;BME280;40364;52.270;10.546;2023-01-26T11:25:34;101227.53;;;11.67;47.98
54455;BME280;40364;52.270;10.546;2023-01-26T11:28:18;101226.34;;;11.86;47.99
54455;BME280;40364;52.270;10.546;2023-01-26T11:31:02;101221.84;;;11.55;47.59
54455;BME280;40364;52.270;10.546;2023-01-26T11:33:40;101223.19;;;10.51;49.52
54455;BME280;40364;52.270;10.546;2023-01-26T11:36:14;101217.09;;;11.00;49.60
54455;BME280;40364;52.270;10.546;2023-01-26T11:38:48;101216.63;;;10.81;49.68
54455;BME280;40364;52.270;10.546;2023-01-26T11:41:25;101210.44;;;9.36;53.49
54455;BME280;40364;52.270;10.546;2023-01-26T11:44:08;101223.91;;;11.29;49.89
54455;BME280;40364;52.270;10.546;2023-01-26T11:46:53;101210.38;;;11.48;49.03
54455;BME280;40364;52.270;10.546;2023-01-26T11:49:39;101216.88;;;11.99;48.51
54455;BME280;40364;52.270;10.546;2023-01-26T11:52:15;101221.47;;;12.24;47.55
54455;BME280;40364;52.270;10.546;2023-01-26T11:55:06;101212.22;;;12.32;47.73
54455;BME280;40364;52.270;10.546;2023-01-26T11:57:46;101197.81;;;12.01;48.41
54455;BME280;40364;52.270;10.546;2023-01-26T12:00:18;101196.69;;;11.64;49.45
54455;BME280;40364;52.270;10.546;2023-01-26T12:02:51;101197.63;;;11.38;48.98
54455;BME280;40364;52.270;10.546;2023-01-26T12:05:24;101207.72;;;11.13;50.49
54455;BME280;40364;52.270;10.546;2023-01-26T12:07:55;101201.03;;;11.53;49.28
54455;BME280;40364;52.270;10.546;2023-01-26T12:10:27;101189.94;;;11.65;49.20
54455;BME280;40364;52.270;10.546;2023-01-26T12:12:58;101191.28;;;11.97;48.92
54455;BME280;40364;52.270;10.546;2023-01-26T12:15:30;101197.13;;;11.36;50.14
54455;BME280;40364;52.270;10.546;2023-01-26T12:18:00;101184.91;;;11.58;48.82
54455;BME280;40364;52.270;10.546;2023-01-26T12:20:36;101188.28;;;12.02;48.28
54455;BME280;40364;52.270;10.546;2023-01-26T12:23:08;101178.69;;;11.53;49.64
54455;BME280;40364;52.270;10.546;2023-01-26T12:25:39;101178.50;;;12.37;47.47
54455;BME280;40364;52.270;10.546;2023-01-26T12:28:14;101176.59;;;12.08;48.08
54455;BME280;40364;52.270;10.546;2023-01-26T12:30:47;101166.94;;;11.68;48.58
54455;BME280;40364;52.270;10.546;2023-01-26T12:33:14;101169.47;;;11.23;49.51
54455;BME280;40364;52.270;10.546;2023-01-26T12:35:57;101167.91;;;9.92;51.92
54455;BME280;40364;52.270;10.546;2023-01-26T12:38:35;101156.63;;;10.75;51.21
54455;BME280;40364;52.270;10.546;2023-01-26T12:41:10;101165.16;;;11.63;50.21
54455;BME280;40364;52.270;10.546;2023-01-26T12:43:51;101162.00;;;12.24;48.25
54455;BME280;40364;52.270;10.546;2023-01-26T12:46:23;101154.78;;;12.02;47.33
54455;BME280;40364;52.270;10.546;2023-01-26T12:48:53;101140.34;;;12.41;47.62
54455;BME280;40364;52.270;10.546;2023-01-26T12:51:27;101143.28;;;12.45;47.18
54455;BME280;40364;52.270;10.546;2023-01-26T12:53:57;101145.59;;;11.80;48.42
54455;BME280;40364;52.270;10.546;2023-01-26T12:56:30;101143.00;;;10.82;51.77
54455;BME280;40364;52.270;10.546;2023-01-26T12:59:02;101155.94;;;11.71;49.07
54455;BME280;40364;52.270;10.546;2023-01-26T13:01:38;101141.94;;;11.12;50.04